createdAt,value
2022-10-22T00:00:55.962Z,8.23
2022-10-22T00:03:22.571Z,13.63
2022-10-22T00:05:49.105Z,16.73
2022-10-22T00:08:15.517Z,11.60
2022-10-22T00:10:42.295Z,17.58
2022-10-22T00:13:11.182Z,11.85
2022-10-22T00:15:37.694Z,15.40
2022-10-22T00:18:04.366Z,8.95
2022-10-22T00:20:30.985Z,12.27
2022-10-22T00:22:57.478Z,12.82
2022-10-22T00:25:23.980Z,15.18
2022-10-22T00:27:50.513Z,16.25
2022-10-22T00:30:22.559Z,12.60
2022-10-22T00:32:49.038Z,13.82
2022-10-22T00:35:15.529Z,14.93
2022-10-22T00:37:41.956Z,10.07
2022-10-22T00:40:09.217Z,12.93
2022-10-22T00:42:35.645Z,17.60
2022-10-22T00:45:08.278Z,18.45
2022-10-22T00:47:41.577Z,16.80
2022-10-22T00:50:21.732Z,13.65
2022-10-22T00:52:49.318Z,19.13
2022-10-22T00:55:16.461Z,17.92
2022-10-22T00:57:43.459Z,16.35
2022-10-22T01:00:10.546Z,15.30
2022-10-22T01:02:37.107Z,20.45
2022-10-22T01:05:04.725Z,16.27
2022-10-22T01:07:31.398Z,12.68
2022-10-22T01:10:06.991Z,18.33
2022-10-22T01:12:45.554Z,14.10
2022-10-22T01:15:42.604Z,13.15
2022-10-22T01:18:29.503Z,14.18
2022-10-22T01:21:22.300Z,18.10
2022-10-22T01:23:54.435Z,16.10
2022-10-22T01:26:54.951Z,17.90
2022-10-22T01:29:38.571Z,17.88
2022-10-22T01:32:11.065Z,19.38
2022-10-22T01:34:40.921Z,18.30
2022-10-22T01:37:09.857Z,16.80
2022-10-22T01:39:37.963Z,12.68
2022-10-22T01:42:04.434Z,12.65
2022-10-22T01:44:33.854Z,12.23
2022-10-22T01:47:22.250Z,17.38
2022-10-22T01:50:28.444Z,15.85
2022-10-22T01:53:12.830Z,12.07
2022-10-22T01:56:16.969Z,15.90
2022-10-22T01:59:04.514Z,13.70
2022-10-22T02:02:12.115Z,15.85
2022-10-22T02:04:48.469Z,20.20
2022-10-22T02:07:19.524Z,19.30
2022-10-22T02:09:46.867Z,13.48
2022-10-22T02:12:14.892Z,12.65
2022-10-22T02:14:43.986Z,20.17
2022-10-22T02:17:15.998Z,17.63
2022-10-22T02:19:46.460Z,16.55
2022-10-22T02:22:13.457Z,22.10
2022-10-22T02:24:40.047Z,16.83
2022-10-22T02:27:16.734Z,19.10
2022-10-22T02:30:07.247Z,16.05
2022-10-22T02:32:43.690Z,22.23
2022-10-22T02:35:14.989Z,21.77
2022-10-22T02:37:42.496Z,19.60
2022-10-22T02:40:09.505Z,21.90
2022-10-22T02:42:37.916Z,20.33
2022-10-22T02:45:05.554Z,20.17
2022-10-22T02:47:32.348Z,22.27
2022-10-22T02:49:58.791Z,12.13
2022-10-22T02:52:25.232Z,12.05
2022-10-22T02:54:51.671Z,16.23
2022-10-22T02:57:18.148Z,13.43
2022-10-22T02:59:44.600Z,18.00
2022-10-22T03:02:11.022Z,17.75
2022-10-22T03:04:37.504Z,18.40
2022-10-22T03:07:03.952Z,18.48
2022-10-22T03:09:30.439Z,22.42
2022-10-22T03:11:56.931Z,22.60
2022-10-22T03:14:23.374Z,16.00
2022-10-22T03:16:49.885Z,20.75
2022-10-22T03:19:16.449Z,18.58
2022-10-22T03:21:50.459Z,18.77
2022-10-22T03:24:22.829Z,17.52
2022-10-22T03:26:51.826Z,15.05
2022-10-22T03:29:21.502Z,15.40
2022-10-22T03:31:47.943Z,20.05
2022-10-22T03:34:14.734Z,22.27
2022-10-22T03:36:41.946Z,23.70
2022-10-22T03:39:09.396Z,22.95
2022-10-22T03:41:36.534Z,19.15
2022-10-22T03:44:04.447Z,17.50
2022-10-22T03:46:30.966Z,13.77
2022-10-22T03:48:57.391Z,18.48
2022-10-22T03:51:27.019Z,16.33
2022-10-22T03:53:53.807Z,15.45
2022-10-22T03:56:20.659Z,19.27
2022-10-22T03:58:47.098Z,19.45
2022-10-22T04:01:14.293Z,14.07
2022-10-22T04:03:40.886Z,21.65
2022-10-22T04:06:11.055Z,21.08
2022-10-22T04:08:39.952Z,19.95
2022-10-22T04:11:06.685Z,19.90
2022-10-22T04:13:33.119Z,21.48
2022-10-22T04:16:32.728Z,12.48
2022-10-22T04:18:59.443Z,15.52
2022-10-22T04:21:26.068Z,9.07
2022-10-22T04:23:53.307Z,14.02
2022-10-22T04:26:20.587Z,11.43
2022-10-22T04:28:50.397Z,18.13
2022-10-22T04:31:20.103Z,19.73
2022-10-22T04:33:47.027Z,18.15
2022-10-22T04:36:18.652Z,10.43
2022-10-22T04:38:46.867Z,11.85
2022-10-22T04:41:21.486Z,9.68
2022-10-22T04:43:48.418Z,9.35
2022-10-22T04:46:17.185Z,9.90
2022-10-22T04:48:46.008Z,10.05
2022-10-22T04:51:17.757Z,17.55
2022-10-22T04:53:45.036Z,13.98
2022-10-22T04:56:19.785Z,11.35
2022-10-22T04:58:48.538Z,8.80
2022-10-22T05:01:17.766Z,17.08
2022-10-22T05:03:45.168Z,14.32
2022-10-22T05:08:44.653Z,14.63
2022-10-22T05:11:16.865Z,12.60
2022-10-22T05:13:43.660Z,8.18
2022-10-22T05:16:12.071Z,13.40
2022-10-22T05:18:40.407Z,15.10
2022-10-22T05:21:12.603Z,12.70
2022-10-22T05:23:39.226Z,16.25
2022-10-22T05:26:07.933Z,14.95
2022-10-22T05:28:35.201Z,9.82
2022-10-22T05:31:03.624Z,16.27
2022-10-22T05:33:33.253Z,18.95
2022-10-22T05:36:00.863Z,9.43
2022-10-22T05:38:27.410Z,12.95
2022-10-22T05:41:04.506Z,14.65
2022-10-22T05:43:31.127Z,13.55
2022-10-22T05:46:05.272Z,19.67
2022-10-22T05:51:05.577Z,14.45
2022-10-22T05:53:36.987Z,20.95
2022-10-22T05:58:31.562Z,15.52
2022-10-22T06:01:06.940Z,20.25
2022-10-22T06:03:33.847Z,18.85
2022-10-22T06:06:02.854Z,16.58
2022-10-22T06:08:30.470Z,13.40
2022-10-22T06:10:57.689Z,16.05
2022-10-22T06:13:24.147Z,18.55
2022-10-22T06:15:53.435Z,20.50
2022-10-22T06:18:20.209Z,18.23
2022-10-22T06:20:47.611Z,18.63
2022-10-22T06:23:14.860Z,19.20
2022-10-22T06:25:41.823Z,17.05
2022-10-22T06:28:08.251Z,14.32
2022-10-22T06:30:34.840Z,14.45
2022-10-22T06:33:01.270Z,21.10
2022-10-22T06:35:27.701Z,21.25
2022-10-22T06:37:54.139Z,17.40
2022-10-22T06:40:21.402Z,18.42
2022-10-22T06:42:47.874Z,20.05
2022-10-22T06:45:14.591Z,16.55
2022-10-22T06:47:41.166Z,20.25
2022-10-22T06:50:08.088Z,14.10
2022-10-22T06:52:34.520Z,21.50
2022-10-22T06:55:01.003Z,20.38
2022-10-22T06:57:27.476Z,17.08
2022-10-22T06:59:53.917Z,18.83
2022-10-22T07:02:20.347Z,16.70
2022-10-22T07:04:46.897Z,19.30
2022-10-22T07:07:14.872Z,14.30
2022-10-22T07:09:41.395Z,21.58
2022-10-22T07:12:07.813Z,17.88
2022-10-22T07:14:34.244Z,20.70
2022-10-22T07:17:00.706Z,19.75
2022-10-22T07:19:27.175Z,21.02
2022-10-22T07:21:53.652Z,20.73
2022-10-22T07:24:20.129Z,17.45
2022-10-22T07:26:46.769Z,20.73
2022-10-22T07:29:15.381Z,19.10
2022-10-22T07:31:42.371Z,19.65
2022-10-22T07:34:09.316Z,17.55
2022-10-22T07:36:36.060Z,18.83
2022-10-22T07:39:02.816Z,17.23
2022-10-22T07:41:30.966Z,13.15
2022-10-22T07:43:58.116Z,19.08
2022-10-22T07:46:25.340Z,17.45
2022-10-22T07:48:51.777Z,16.05
2022-10-22T07:51:18.259Z,20.73
2022-10-22T07:53:44.717Z,20.80
2022-10-22T07:56:11.349Z,15.75
2022-10-22T07:58:38.035Z,11.00
2022-10-22T08:01:05.802Z,19.70
2022-10-22T08:03:33.118Z,19.15
2022-10-22T08:06:00.938Z,16.83
2022-10-22T08:08:30.588Z,10.60
2022-10-22T08:10:59.745Z,7.97
2022-10-22T08:13:27.404Z,6.10
2022-10-22T08:15:57.273Z,4.72
2022-10-22T08:18:24.475Z,4.50
2022-10-22T08:20:51.587Z,3.80
2022-10-22T08:23:18.060Z,3.47
2022-10-22T08:25:44.549Z,2.42
2022-10-22T08:28:11.011Z,1.95
2022-10-22T08:30:38.625Z,2.20
2022-10-22T08:33:06.035Z,2.42
2022-10-22T08:35:32.734Z,2.33
2022-10-22T08:37:59.182Z,2.25
2022-10-22T08:40:31.934Z,1.88
2022-10-22T08:43:11.964Z,2.22
2022-10-22T08:45:57.963Z,1.98
2022-10-22T08:48:38.701Z,2.00
2022-10-22T08:51:05.791Z,1.70
2022-10-22T08:53:39.889Z,1.45
2022-10-22T08:56:06.538Z,1.42
2022-10-22T08:58:53.188Z,1.73
2022-10-22T09:01:45.542Z,1.63
2022-10-22T09:04:16.276Z,1.80
2022-10-22T09:06:44.412Z,1.50
2022-10-22T09:09:18.551Z,1.35
2022-10-22T09:11:56.575Z,1.38
2022-10-22T09:14:25.299Z,1.38
2022-10-22T09:17:09.835Z,1.30
2022-10-22T09:19:48.938Z,2.13
2022-10-22T09:22:36.818Z,1.40
2022-10-22T09:25:27.787Z,1.40
2022-10-22T09:27:58.595Z,1.50
2022-10-22T09:30:28.522Z,1.30
2022-10-22T09:33:01.104Z,1.20
2022-10-22T09:35:28.656Z,1.00
2022-10-22T09:37:57.011Z,1.10
2022-10-22T09:40:24.006Z,1.20
2022-10-22T09:42:50.523Z,1.00
2022-10-22T09:45:23.187Z,1.00
2022-10-22T09:48:01.541Z,0.70
2022-10-22T09:50:41.300Z,0.80
2022-10-22T09:53:27.009Z,0.80
2022-10-22T09:55:58.992Z,0.70
2022-10-22T09:58:26.387Z,0.70
2022-10-22T10:00:56.890Z,0.90
2022-10-22T10:03:26.899Z,0.60
2022-10-22T10:06:00.183Z,0.60
2022-10-22T10:08:29.811Z,0.50
2022-10-22T10:11:09.357Z,0.60
2022-10-22T10:13:53.925Z,0.47
2022-10-22T10:16:23.293Z,0.57
2022-10-22T10:19:14.052Z,0.55
2022-10-22T10:22:09.765Z,0.43
2022-10-22T10:25:03.488Z,0.57
2022-10-22T10:27:43.014Z,0.50
2022-10-22T10:30:19.554Z,0.50
2022-10-22T10:33:01.215Z,0.50
2022-10-22T10:35:58.598Z,0.50
2022-10-22T10:38:43.908Z,0.60
2022-10-22T10:41:17.595Z,0.60
2022-10-22T10:43:49.915Z,0.85
2022-10-22T10:46:36.920Z,0.77
2022-10-22T10:49:18.826Z,0.50
2022-10-22T10:51:50.172Z,0.65
2022-10-22T10:56:56.803Z,0.60
2022-10-22T10:59:54.738Z,0.40
2022-10-22T11:02:29.899Z,0.40
2022-10-22T11:05:13.013Z,0.40
2022-10-22T11:07:49.859Z,0.55
2022-10-22T11:10:25.945Z,0.60
2022-10-22T11:12:57.471Z,0.70
2022-10-22T11:15:29.872Z,0.60
2022-10-22T11:18:03.055Z,0.60
2022-10-22T11:20:50.282Z,1.27
2022-10-22T11:23:29.054Z,0.60
2022-10-22T11:25:55.576Z,0.80
2022-10-22T11:28:33.903Z,0.85
2022-10-22T11:31:05.002Z,0.70
2022-10-22T11:33:52.694Z,0.60
2022-10-22T11:36:27.286Z,0.63
2022-10-22T11:38:54.401Z,0.60
2022-10-22T11:41:27.423Z,0.70
2022-10-22T11:44:23.292Z,0.50
2022-10-22T11:46:57.252Z,0.80
2022-10-22T11:49:42.348Z,0.60
2022-10-22T11:52:24.135Z,0.95
2022-10-22T11:54:54.880Z,0.75
2022-10-22T11:57:27.199Z,0.70
2022-10-22T11:59:58.995Z,0.95
2022-10-22T12:02:28.484Z,0.60
2022-10-22T12:04:56.596Z,0.80
2022-10-22T12:08:00.003Z,0.60
2022-10-22T12:10:34.221Z,1.10
2022-10-22T12:13:24.620Z,0.60
2022-10-22T12:15:57.945Z,0.85
2022-10-22T12:18:33.022Z,0.80
2022-10-22T12:20:59.503Z,0.77
2022-10-22T12:23:31.469Z,0.70
2022-10-22T12:25:58.384Z,0.50
2022-10-22T12:28:24.833Z,0.55
2022-10-22T12:30:51.285Z,0.70
2022-10-22T12:33:21.583Z,0.70
2022-10-22T12:35:51.474Z,1.05
2022-10-22T12:38:21.366Z,0.82
2022-10-22T12:40:50.216Z,0.57
2022-10-22T12:43:19.975Z,0.70
2022-10-22T12:45:48.486Z,0.95
2022-10-22T12:48:25.300Z,0.60
2022-10-22T12:50:54.530Z,0.70
2022-10-22T12:53:27.791Z,0.60
2022-10-22T12:55:57.580Z,0.70
2022-10-22T12:58:29.845Z,1.00
2022-10-22T13:01:01.927Z,0.80
2022-10-22T13:03:39.891Z,0.60
2022-10-22T13:06:18.970Z,0.80
2022-10-22T13:08:56.463Z,0.75
2022-10-22T13:11:22.960Z,1.17
2022-10-22T13:13:49.401Z,1.00
2022-10-22T13:16:24.627Z,0.77
2022-10-22T13:18:52.898Z,1.00
2022-10-22T13:21:26.595Z,0.90
2022-10-22T13:23:58.431Z,1.10
2022-10-22T13:26:31.630Z,0.93
2022-10-22T13:29:01.073Z,0.77
2022-10-22T13:31:32.140Z,0.80
2022-10-22T13:34:09.719Z,0.80
2022-10-22T13:36:38.368Z,0.93
2022-10-22T13:39:07.912Z,0.88
2022-10-22T13:44:11.988Z,1.20
2022-10-22T13:46:42.529Z,0.80
2022-10-22T13:49:20.881Z,0.75
2022-10-22T13:51:47.763Z,0.70
2022-10-22T13:54:18.631Z,1.15
2022-10-22T13:56:45.748Z,0.80
2022-10-22T13:59:12.702Z,0.90
2022-10-22T14:01:39.365Z,0.60
2022-10-22T14:04:10.368Z,0.70
2022-10-22T14:09:15.020Z,0.77
2022-10-22T14:11:41.654Z,0.70
2022-10-22T14:14:09.145Z,0.85
2022-10-22T14:16:37.339Z,0.60
2022-10-22T14:19:07.217Z,0.90
2022-10-22T14:21:36.795Z,0.60
2022-10-22T14:24:03.380Z,0.77
2022-10-22T14:26:35.006Z,0.68
2022-10-22T14:29:10.723Z,0.68
2022-10-22T14:34:10.769Z,0.70
2022-10-22T14:36:37.278Z,0.70
2022-10-22T14:39:03.817Z,0.70
2022-10-22T14:41:30.802Z,0.63
2022-10-22T14:43:59.408Z,1.45
2022-10-22T14:46:25.899Z,0.60
2022-10-22T14:48:52.381Z,5.30
2022-10-22T14:51:21.349Z,2.28
2022-10-22T14:53:48.009Z,1.50
2022-10-22T14:56:18.635Z,2.97
2022-10-22T14:58:45.668Z,2.20
2022-10-22T15:01:12.935Z,2.65
2022-10-22T15:03:39.580Z,2.17
2022-10-22T15:06:06.910Z,1.80
2022-10-22T15:08:33.611Z,2.40
2022-10-22T15:11:03.329Z,1.50
2022-10-22T15:13:30.691Z,2.58
2022-10-22T15:15:58.085Z,2.05
2022-10-22T15:18:25.464Z,2.17
2022-10-22T15:21:01.321Z,1.38
2022-10-22T15:23:27.873Z,1.80
2022-10-22T15:25:55.022Z,1.90
2022-10-22T15:28:21.563Z,1.85
2022-10-22T15:30:59.133Z,2.22
2022-10-22T15:33:26.983Z,1.80
2022-10-22T15:35:53.829Z,1.67
2022-10-22T15:38:20.514Z,1.55
2022-10-22T15:40:47.087Z,1.85
2022-10-22T15:43:14.084Z,1.38
2022-10-22T15:45:40.683Z,1.77
2022-10-22T15:48:07.178Z,1.50
2022-10-22T15:50:38.365Z,1.17
2022-10-22T15:53:05.471Z,1.52
2022-10-22T15:55:32.134Z,1.25
2022-10-22T15:58:01.842Z,1.27
2022-10-22T16:00:30.064Z,1.35
2022-10-22T16:02:56.666Z,1.20
2022-10-22T16:05:23.172Z,0.98
2022-10-22T16:07:51.357Z,2.03
2022-10-22T16:10:17.887Z,1.20
2022-10-22T16:12:44.527Z,1.73
2022-10-22T16:15:11.205Z,1.27
2022-10-22T16:17:37.723Z,1.35
2022-10-22T16:20:04.753Z,1.27
2022-10-22T16:22:31.318Z,1.67
2022-10-22T16:24:57.800Z,2.33
2022-10-22T16:27:24.242Z,2.70
2022-10-22T16:29:50.716Z,2.58
2022-10-22T16:32:17.808Z,2.10
2022-10-22T16:34:44.323Z,1.35
2022-10-22T16:37:10.802Z,1.90
2022-10-22T16:39:37.315Z,1.33
2022-10-22T16:42:04.043Z,1.50
2022-10-22T16:44:30.547Z,1.70
2022-10-22T16:46:57.018Z,1.42
2022-10-22T16:49:23.786Z,1.40
2022-10-22T16:51:50.331Z,2.00
2022-10-22T16:54:16.945Z,1.25
2022-10-22T16:56:43.441Z,1.40
2022-10-22T16:59:09.897Z,1.70
2022-10-22T17:01:40.556Z,9.90
2022-10-22T17:04:08.001Z,27.05
2022-10-22T17:06:34.467Z,13.85
2022-10-22T17:09:01.037Z,8.85
2022-10-22T17:11:29.943Z,13.52
2022-10-22T17:13:57.561Z,3.60
2022-10-22T17:16:24.770Z,3.15
2022-10-22T17:18:53.916Z,3.13
2022-10-22T17:21:21.264Z,3.38
2022-10-22T17:23:48.942Z,2.80
2022-10-22T17:26:21.540Z,2.22
2022-10-22T17:28:48.979Z,3.28
2022-10-22T17:31:27.140Z,2.55
2022-10-22T17:33:56.233Z,2.65
2022-10-22T17:36:24.374Z,2.75
2022-10-22T17:38:53.640Z,2.85
2022-10-22T17:41:31.885Z,2.72
2022-10-22T17:44:01.161Z,3.00
2022-10-22T17:46:29.355Z,2.45
2022-10-22T17:48:58.160Z,2.50
2022-10-22T17:51:26.195Z,2.83
2022-10-22T17:53:53.080Z,2.70
2022-10-22T17:56:22.288Z,3.35
2022-10-22T17:58:49.488Z,3.90
2022-10-22T18:01:24.868Z,4.63
2022-10-22T18:03:52.820Z,6.55
2022-10-22T18:06:19.501Z,3.90
2022-10-22T18:08:46.077Z,3.15
2022-10-22T18:11:23.806Z,3.10
2022-10-22T18:13:51.780Z,3.30
2022-10-22T18:16:18.879Z,2.47
2022-10-22T18:18:47.498Z,2.83
2022-10-22T18:21:15.594Z,3.00
2022-10-22T18:23:42.498Z,2.22
2022-10-22T18:26:09.109Z,2.60
2022-10-22T18:28:36.530Z,2.60
2022-10-22T18:31:10.553Z,2.60
2022-10-22T18:33:37.197Z,2.40
2022-10-22T18:36:05.776Z,2.67
2022-10-22T18:38:32.382Z,3.85
2022-10-22T18:40:59.316Z,2.95
2022-10-22T18:43:26.503Z,3.25
2022-10-22T18:45:52.952Z,2.88
2022-10-22T18:48:22.795Z,3.15
2022-10-22T18:50:59.121Z,2.75
2022-10-22T18:53:25.611Z,2.70
2022-10-22T18:55:52.220Z,2.55
2022-10-22T18:58:18.682Z,2.50
2022-10-22T19:00:45.258Z,2.25
2022-10-22T19:03:13.353Z,2.65
2022-10-22T19:05:52.040Z,2.60
2022-10-22T19:08:19.603Z,2.20
2022-10-22T19:10:47.214Z,2.03
2022-10-22T19:13:16.048Z,2.58
2022-10-22T19:15:42.781Z,2.25
2022-10-22T19:18:09.728Z,2.30
2022-10-22T19:20:37.168Z,2.60
2022-10-22T19:23:04.089Z,2.75
2022-10-22T19:25:30.513Z,2.63
2022-10-22T19:27:57.043Z,2.75
2022-10-22T19:30:24.099Z,2.38
2022-10-22T19:32:50.608Z,2.33
2022-10-22T19:35:17.476Z,2.72
2022-10-22T19:37:48.208Z,2.38
2022-10-22T19:40:15.261Z,2.10
2022-10-22T19:42:44.228Z,2.25
2022-10-22T19:45:11.166Z,2.03
2022-10-22T19:47:37.603Z,3.03
2022-10-22T19:50:04.339Z,2.83
2022-10-22T19:52:30.780Z,2.33
2022-10-22T19:54:57.210Z,2.60
2022-10-22T19:57:23.646Z,3.00
2022-10-22T19:59:50.824Z,2.30
2022-10-22T20:02:18.760Z,2.28
2022-10-22T20:04:49.207Z,2.60
2022-10-22T20:07:17.145Z,2.35
2022-10-22T20:09:43.614Z,2.47
2022-10-22T20:12:10.056Z,2.13
2022-10-22T20:14:37.400Z,2.50
2022-10-22T20:17:03.987Z,2.78
2022-10-22T20:19:30.416Z,2.30
2022-10-22T20:21:56.855Z,2.45
2022-10-22T20:24:23.342Z,2.60
2022-10-22T20:26:49.784Z,2.53
2022-10-22T20:29:18.981Z,2.35
2022-10-22T20:31:46.639Z,2.25
2022-10-22T20:34:13.336Z,2.33
2022-10-22T20:36:40.322Z,2.15
2022-10-22T20:39:13.095Z,2.30
2022-10-22T20:41:40.606Z,2.42
2022-10-22T20:44:11.176Z,1.90
2022-10-22T20:46:37.719Z,2.10
2022-10-22T20:49:07.569Z,2.63
2022-10-22T20:51:36.363Z,2.20
2022-10-22T20:54:03.431Z,2.28
2022-10-22T20:56:29.934Z,2.53
2022-10-22T20:59:04.745Z,2.20
2022-10-22T21:01:37.040Z,2.47
2022-10-22T21:04:04.450Z,2.13
2022-10-22T21:06:31.041Z,2.50
2022-10-22T21:08:57.546Z,2.42
2022-10-22T21:11:24.149Z,3.10
2022-10-22T21:13:51.011Z,2.67
2022-10-22T21:16:19.035Z,2.50
2022-10-22T21:18:46.943Z,2.33
2022-10-22T21:21:13.617Z,2.08
2022-10-22T21:23:40.163Z,2.25
2022-10-22T21:26:06.827Z,1.88
2022-10-22T21:28:35.713Z,2.22
2022-10-22T21:31:07.424Z,2.28
2022-10-22T21:33:38.728Z,2.00
2022-10-22T21:38:32.649Z,2.65
2022-10-22T21:40:59.091Z,1.85
2022-10-22T21:43:25.520Z,2.10
2022-10-22T21:45:52.039Z,2.20
2022-10-22T21:48:18.455Z,2.20
2022-10-22T21:50:44.966Z,2.33
2022-10-22T21:53:12.234Z,2.13
2022-10-22T21:55:41.760Z,2.13
2022-10-22T21:58:08.618Z,1.90
2022-10-22T22:00:35.501Z,1.88
2022-10-22T22:03:02.357Z,2.10
2022-10-22T22:05:29.207Z,2.42
2022-10-22T22:07:55.681Z,2.10
2022-10-22T22:10:22.155Z,2.08
2022-10-22T22:12:51.136Z,2.17
2022-10-22T22:15:21.490Z,1.85
2022-10-22T22:17:47.962Z,2.30
2022-10-22T22:20:14.563Z,2.30
2022-10-22T22:22:41.285Z,2.08
2022-10-22T22:25:08.369Z,2.13
2022-10-22T22:27:34.834Z,51.90
2022-10-22T22:30:01.291Z,3.35
2022-10-22T22:32:27.707Z,3.08
2022-10-22T22:34:54.189Z,2.50
2022-10-22T22:37:20.621Z,2.50
2022-10-22T22:39:47.065Z,2.92
2022-10-22T22:42:13.476Z,2.30
2022-10-22T22:44:39.969Z,1.83
2022-10-22T22:47:06.392Z,1.92
2022-10-22T22:49:32.988Z,2.20
2022-10-22T22:51:59.491Z,2.30
2022-10-22T22:54:26.149Z,1.98
2022-10-22T22:56:52.579Z,2.72
2022-10-22T22:59:19.083Z,1.70
2022-10-22T23:01:48.596Z,1.60
2022-10-22T23:04:25.259Z,3.15
2022-10-22T23:06:52.178Z,2.35
2022-10-22T23:11:51.627Z,2.70
2022-10-22T23:14:19.556Z,1.55
2022-10-22T23:16:49.212Z,2.50
2022-10-22T23:19:17.809Z,1.83
2022-10-22T23:21:47.157Z,1.65
2022-10-22T23:24:16.947Z,2.30
2022-10-22T23:26:46.451Z,2.75
2022-10-22T23:29:24.692Z,1.92
2022-10-22T23:31:51.965Z,1.90
2022-10-22T23:34:21.852Z,2.28
2022-10-22T23:36:48.847Z,2.90
2022-10-22T23:39:18.382Z,2.30
2022-10-22T23:41:45.427Z,2.45
2022-10-22T23:44:12.862Z,2.30
2022-10-22T23:46:39.955Z,2.60
2022-10-22T23:49:08.345Z,2.40
2022-10-22T23:51:35.407Z,2.20
2022-10-22T23:54:04.974Z,2.35
2022-10-22T23:56:31.603Z,2.60
2022-10-22T23:58:58.836Z,2.35
